Time;durP1;ratioP1;P1;durP2;ratioP2;P2;SDS_P1;SDS_P2;PMS_P1;PMS_P2;Temp;Humidity;BMP_temperature;BMP_pressure;BME280_temperature;BME280_humidity;BME280_pressure;Samples;Min_cycle;Max_cycle;Signal;HPM_P1;HPM_P2
2023/09/18 00:02:06;;;;;;;5.22;2.03;;;;;;;19.05;nan;98528.47;7396975;19;20010;-81
2023/09/18 00:04:33;;;;;;;3.35;1.48;;;;;;;19.54;nan;98523.13;7398263;19;20497;-81
2023/09/18 00:06:59;;;;;;;3.60;1.45;;;;;;;18.90;nan;98525.66;7392934;19;20022;-81
2023/09/18 00:09:26;;;;;;;6.50;1.85;;;;;;;19.40;nan;98513.41;7394099;19;20014;-80
2023/09/18 00:11:52;;;;;;;1.50;1.02;;;;;;;19.36;nan;98506.63;7394903;19;20033;-80
2023/09/18 00:14:18;;;;;;;5.10;3.05;;;;;;;20.19;nan;98503.44;7397286;19;20465;-81
2023/09/18 00:16:44;;;;;;;5.90;2.58;;;;;;;20.00;nan;98511.63;7391569;19;20018;-80
2023/09/18 00:19:11;;;;;;;8.32;2.65;;;;;;;20.13;nan;98497.25;7394638;19;20038;-81
2023/09/18 00:21:37;;;;;;;8.65;2.78;;;;;;;20.31;nan;98491.13;7393209;19;20022;-81
2023/09/18 00:24:03;;;;;;;7.38;2.97;;;;;;;20.51;nan;98492.09;7396488;19;20031;-80
2023/09/18 00:26:29;;;;;;;6.30;2.47;;;;;;;19.24;nan;98497.78;7392252;19;20373;-80
2023/09/18 00:28:57;;;;;;;5.82;3.40;;;;;;;19.22;nan;98491.94;7392580;19;20037;-81
2023/09/18 00:31:23;;;;;;;6.82;2.97;;;;;;;18.68;nan;98501.03;7392915;19;20026;-81
2023/09/18 00:33:49;;;;;;;4.38;2.67;;;;;;;18.25;nan;98504.72;7396658;19;20029;-81
2023/09/18 00:36:15;;;;;;;10.57;2.78;;;;;;;18.53;nan;98489.75;7390740;19;20015;-81
2023/09/18 00:38:41;;;;;;;9.75;2.58;;;;;;;18.35;nan;98488.00;7394244;19;20014;-81
2023/09/18 00:41:07;;;;;;;4.18;2.38;;;;;;;17.94;nan;98492.63;7392599;19;20033;-81
2023/09/18 00:43:34;;;;;;;4.57;2.38;;;;;;;18.36;nan;98486.72;7394299;19;20015;-81
2023/09/18 00:46:01;;;;;;;9.23;2.83;;;;;;;18.98;nan;98484.09;7392068;19;20022;-82
2023/09/18 00:48:28;;;;;;;4.43;1.80;;;;;;;19.47;nan;98473.06;7392536;19;20029;-82
2023/09/18 00:50:54;;;;;;;8.75;1.63;;;;;;;18.28;nan;98474.69;7392633;19;20366;-82
2023/09/18 00:53:23;;;;;;;2.95;2.08;;;;;;;17.90;nan;98480.97;7396089;19;20030;-82
2023/09/18 00:55:52;;;;;;;3.78;0.80;;;;;;;17.90;nan;98475.34;7393311;19;20054;-83
2023/09/18 00:58:18;;;;;;;5.70;1.67;;;;;;;17.89;nan;98478.72;7391167;19;20014;-82
2023/09/18 01:00:45;;;;;;;5.97;3.40;;;;;;;17.87;nan;98462.38;7392700;19;21187;-82
2023/09/18 01:03:11;;;;;;;6.55;1.90;;;;;;;17.85;nan;98465.00;7395722;19;20381;-82
2023/09/18 01:05:38;;;;;;;2.75;1.80;;;;;;;17.83;nan;98447.91;7391567;19;20006;-82
2023/09/18 01:08:05;;;;;;;5.97;2.17;;;;;;;17.82;nan;98456.94;7389559;19;20047;-82
2023/09/18 01:10:48;;;;;;;6.65;2.58;;;;;;;17.84;nan;98449.44;7389193;19;20023;-81
2023/09/18 01:13:21;;;;;;;4.43;2.95;;;;;;;17.85;nan;98442.47;7393296;19;20010;-82
2023/09/18 01:16:10;;;;;;;7.53;2.65;;;;;;;19.37;nan;98429.06;7391228;19;20042;-82
2023/09/18 01:18:36;;;;;;;3.33;1.83;;;;;;;18.09;nan;98422.22;7390513;19;20019;-82
2023/09/18 01:21:02;;;;;;;9.25;2.80;;;;;;;18.76;nan;98411.53;7392629;19;20026;-82
2023/09/18 01:23:28;;;;;;;5.50;1.88;;;;;;;19.12;nan;98403.53;7394137;19;20014;-82
2023/09/18 01:25:54;;;;;;;4.97;2.60;;;;;;;19.30;nan;98399.50;7392642;19;20011;-83
2023/09/18 01:28:20;;;;;;;12.65;2.70;;;;;;;19.02;nan;98399.78;7391131;19;20017;-82
2023/09/18 01:30:47;;;;;;;4.20;1.25;;;;;;;18.78;nan;98403.25;7391648;19;20014;-82
2023/09/18 01:33:14;;;;;;;3.03;1.52;;;;;;;20.79;nan;98389.81;7396872;19;20022;-82
2023/09/18 01:35:42;;;;;;;5.05;1.75;;;;;;;20.49;nan;98380.91;7395663;19;20014;-82
2023/09/18 01:38:10;;;;;;;6.57;2.42;;;;;;;20.13;nan;98379.28;7389703;19;20018;-82
2023/09/18 01:40:37;;;;;;;12.15;4.00;;;;;;;20.09;nan;98378.19;7391537;19;20027;-82
2023/09/18 01:43:03;;;;;;;4.82;1.55;;;;;;;20.46;nan;98365.84;7391583;19;20025;-82
2023/09/18 01:45:30;;;;;;;4.68;1.80;;;;;;;20.65;nan;98365.28;7390284;19;20461;-82
2023/09/18 01:47:56;;;;;;;4.05;2.35;;;;;;;21.50;nan;98356.75;7390719;19;20074;-81
2023/09/18 01:50:22;;;;;;;7.18;2.10;;;;;;;21.86;nan;98353.22;7391542;19;20042;-82
2023/09/18 01:52:48;;;;;;;2.65;1.15;;;;;;;21.68;nan;98348.91;7390352;19;20018;-82
2023/09/18 01:55:14;;;;;;;10.25;2.40;;;;;;;21.92;nan;98348.03;7391831;19;20031;-82
2023/09/18 01:57:42;;;;;;;7.65;1.83;;;;;;;21.74;nan;98335.25;7390028;19;20022;-81
2023/09/18 02:00:09;;;;;;;3.92;1.25;;;;;;;20.62;nan;98336.06;7391065;19;20516;-81
2023/09/18 02:02:38;;;;;;;6.10;1.70;;;;;;;20.46;nan;98339.63;7394731;19;20048;-81
2023/09/18 02:05:04;;;;;;;17.40;1.63;;;;;;;21.06;nan;98325.59;7389602;19;20091;-81
2023/09/18 02:07:31;;;;;;;6.25;1.42;;;;;;;18.10;nan;98327.94;7389716;19;20040;-81
2023/09/18 02:09:57;;;;;;;5.70;2.72;;;;;;;18.45;nan;98326.22;7390614;19;20419;-81
2023/09/18 02:12:23;;;;;;;6.53;2.65;;;;;;;18.55;nan;98329.22;7392529;19;20014;-81
2023/09/18 02:14:50;;;;;;;7.25;2.50;;;;;;;17.48;nan;98321.31;7389886;19;20078;-82
2023/09/18 02:17:16;;;;;;;7.55;2.25;;;;;;;19.27;nan;98307.53;7388609;19;20010;-82
2023/09/18 02:19:43;;;;;;;5.25;2.40;;;;;;;20.09;nan;98307.53;7389349;19;20374;-82
2023/09/18 02:22:09;;;;;;;8.35;1.83;;;;;;;20.52;nan;98295.63;7392969;19;20019;-82
2023/09/18 02:24:35;;;;;;;4.47;1.42;;;;;;;21.02;nan;98279.94;7401944;19;20052;-82
2023/09/18 02:27:05;;;;;;;5.10;2.78;;;;;;;21.77;nan;98271.72;7395705;19;20026;-81
2023/09/18 02:29:31;;;;;;;7.43;1.52;;;;;;;21.88;nan;98262.69;7396861;19;20031;-81
2023/09/18 02:31:57;;;;;;;1.83;1.05;;;;;;;21.82;nan;98265.03;7398136;19;20018;-82
2023/09/18 02:34:25;;;;;;;6.10;1.70;;;;;;;21.20;nan;98260.13;7395913;19;20489;-81
2023/09/18 02:36:51;;;;;;;6.20;1.50;;;;;;;22.06;nan;98241.41;7398870;19;20038;-82
2023/09/18 02:39:17;;;;;;;3.78;2.58;;;;;;;22.40;nan;98234.72;7397755;19;20118;-81
2023/09/18 02:41:43;;;;;;;4.97;1.63;;;;;;;22.84;nan;98225.91;7395645;19;20506;-82
2023/09/18 02:44:09;;;;;;;6.07;2.70;;;;;;;23.02;nan;98224.41;7398185;19;20014;-81
2023/09/18 02:46:37;;;;;;;8.63;2.10;;;;;;;23.13;nan;98215.97;7398584;19;20488;-81
2023/09/18 02:49:03;;;;;;;1.67;1.23;;;;;;;21.36;nan;98213.22;7396977;19;20029;-81
2023/09/18 02:51:31;;;;;;;2.72;1.50;;;;;;;20.77;nan;98208.56;7395934;19;20034;-81
2023/09/18 02:53:58;;;;;;;6.90;1.77;;;;;;;21.54;nan;98204.09;7395738;19;20010;-81
2023/09/18 02:56:24;;;;;;;3.53;2.10;;;;;;;21.27;nan;98191.31;7398016;19;20035;-80
2023/09/18 02:58:50;;;;;;;5.13;0.82;;;;;;;20.79;nan;98194.59;7398141;19;20024;-82
2023/09/18 03:01:16;;;;;;;6.63;1.52;;;;;;;20.38;nan;98196.22;7394054;19;20361;-81
2023/09/18 03:03:43;;;;;;;4.22;1.77;;;;;;;21.56;nan;98189.31;7395652;19;20369;-81
2023/09/18 03:06:09;;;;;;;1.65;1.30;;;;;;;21.61;nan;98191.13;7395044;19;20006;-81
2023/09/18 03:08:35;;;;;;;3.85;2.65;;;;;;;21.44;nan;98186.28;7395074;19;20026;-82
2023/09/18 03:11:03;;;;;;;6.13;2.00;;;;;;;19.99;nan;98197.19;7396983;19;20521;-81
2023/09/18 03:13:30;;;;;;;9.68;1.73;;;;;;;19.98;nan;98187.22;7393365;19;20017;-81
2023/09/18 03:15:56;;;;;;;3.17;1.55;;;;;;;18.38;nan;98191.69;7395710;19;20025;-82
2023/09/18 03:18:24;;;;;;;7.95;1.35;;;;;;;19.89;nan;98187.88;7395137;19;20014;-80
2023/09/18 03:20:50;;;;;;;3.53;1.10;;;;;;;20.48;nan;98170.88;7395723;19;20013;-81
2023/09/18 03:23:16;;;;;;;13.25;1.90;;;;;;;17.97;nan;98181.66;7396932;19;20018;-81
2023/09/18 03:25:42;;;;;;;3.92;1.63;;;;;;;19.45;nan;98170.75;7395868;19;20007;-82
2023/09/18 03:28:08;;;;;;;1.75;0.77;;;;;;;18.73;nan;98164.47;7393472;19;20003;-81
2023/09/18 03:30:36;;;;;;;3.53;1.23;;;;;;;17.93;nan;98167.19;7394580;19;20018;-82
2023/09/18 03:33:03;;;;;;;1.20;0.82;;;;;;;17.35;nan;98173.06;7397690;19;20019;-81
2023/09/18 03:35:31;;;;;;;3.03;0.85;;;;;;;20.14;nan;98156.72;7394612;19;20025;-82
2023/09/18 03:37:57;;;;;;;0.95;0.63;;;;;;;20.34;nan;98147.84;7392259;19;20015;-81
2023/09/18 03:40:24;;;;;;;4.05;1.25;;;;;;;19.85;nan;98161.38;7395532;19;20018;-81
2023/09/18 03:42:50;;;;;;;2.35;1.27;;;;;;;19.98;nan;98163.88;7394677;19;20014;-81
2023/09/18 03:45:18;;;;;;;1.33;0.65;;;;;;;17.86;nan;98173.63;7393216;19;20010;-81
2023/09/18 03:47:45;;;;;;;2.45;0.88;;;;;;;17.33;nan;98186.94;7391656;19;20042;-81
2023/09/18 03:50:12;;;;;;;4.82;1.58;;;;;;;18.87;nan;98185.44;7393929;19;20042;-81
2023/09/18 03:52:39;;;;;;;3.70;1.27;;;;;;;19.35;nan;98178.38;7394143;19;20024;-82
2023/09/18 03:55:07;;;;;;;1.45;1.08;;;;;;;20.03;nan;98177.00;7394248;19;20015;-82
2023/09/18 03:57:33;;;;;;;2.35;1.17;;;;;;;19.75;nan;98185.97;7394016;19;20017;-82
2023/09/18 03:59:59;;;;;;;2.35;1.55;;;;;;;19.61;nan;98188.34;7393141;19;20025;-82
2023/09/18 04:02:26;;;;;;;10.02;1.95;;;;;;;19.40;nan;98185.88;7397275;19;20034;-81
2023/09/18 04:04:54;;;;;;;5.50;1.30;;;;;;;20.25;nan;98182.44;7394013;19;20499;-81
2023/09/18 04:07:20;;;;;;;2.60;0.57;;;;;;;19.75;nan;98180.31;7392061;19;20018;-81
2023/09/18 04:09:46;;;;;;;4.90;1.42;;;;;;;17.36;nan;98191.44;7395828;19;20045;-81
2023/09/18 04:12:13;;;;;;;5.15;2.13;;;;;;;16.99;nan;98209.03;7393342;19;20043;-81
2023/09/18 04:14:39;;;;;;;5.78;1.77;;;;;;;16.44;nan;98209.38;7394506;19;20014;-81
2023/09/18 04:17:05;;;;;;;4.45;1.92;;;;;;;16.72;nan;98196.59;7393637;19;20015;-81
2023/09/18 04:19:32;;;;;;;4.65;1.63;;;;;;;18.36;nan;98187.94;7393015;19;20025;-81
2023/09/18 04:21:58;;;;;;;1.30;1.00;;;;;;;17.03;nan;98192.53;7390884;19;20022;-81
2023/09/18 04:24:25;;;;;;;5.75;1.65;;;;;;;20.01;nan;98180.41;7397174;19;20018;-81
2023/09/18 04:26:52;;;;;;;2.60;0.95;;;;;;;16.64;nan;98191.69;7392961;19;20391;-81
2023/09/18 04:29:21;;;;;;;2.22;0.98;;;;;;;16.52;nan;98186.97;7394763;19;20022;-81
2023/09/18 04:31:48;;;;;;;;;;;;;;;17.47;nan;98174.19;7394238;19;20029;-81
2023/09/18 04:34:15;;;;;;;9.88;2.20;;;;;;;17.44;nan;98164.81;7395105;19;20445;-81
2023/09/18 04:36:41;;;;;;;5.57;1.50;;;;;;;16.74;nan;98171.50;7392818;19;20018;-81
2023/09/18 04:39:09;;;;;;;5.45;0.85;;;;;;;16.35;nan;98161.41;7392724;19;20017;-81
2023/09/18 04:41:35;;;;;;;2.13;0.85;;;;;;;17.42;nan;98161.06;7391082;19;20349;-81
2023/09/18 04:44:05;;;;;;;4.50;1.27;;;;;;;17.39;nan;98156.53;7394579;19;20030;-81
2023/09/18 04:46:34;;;;;;;3.42;1.15;;;;;;;17.50;nan;98167.44;7391139;19;20028;-81
2023/09/18 04:49:03;;;;;;;3.70;1.52;;;;;;;17.90;nan;98153.50;7391955;19;20019;-81
2023/09/18 04:51:32;;;;;;;5.07;0.77;;;;;;;27.89;nan;98134.97;7393339;19;20022;-81
2023/09/18 04:53:59;;;;;;;1.77;0.88;;;;;;;36.29;nan;98116.13;7395629;19;20043;-81
2023/09/18 04:56:26;;;;;;;1.75;1.00;;;;;;;21.66;nan;98136.25;7393938;19;20036;-81
2023/09/18 04:58:53;;;;;;;3.33;1.10;;;;;;;19.75;nan;98135.13;7391910;19;20018;-81
2023/09/18 05:01:20;;;;;;;3.42;1.58;;;;;;;18.93;nan;98135.94;7391547;19;20010;-81
2023/09/18 05:03:48;;;;;;;0.95;0.90;;;;;;;17.67;nan;98144.38;7390798;19;20718;-81
2023/09/18 05:06:15;;;;;;;2.17;1.08;;;;;;;17.34;nan;98155.44;7390828;19;20014;-81
2023/09/18 05:08:41;;;;;;;3.17;0.77;;;;;;;18.19;nan;98146.28;7391608;19;20031;-81
2023/09/18 05:11:07;;;;;;;1.25;0.95;;;;;;;17.70;nan;98146.78;7391383;19;20166;-81
2023/09/18 05:13:33;;;;;;;1.05;0.57;;;;;;;17.49;nan;98137.78;7390695;19;20556;-81
2023/09/18 05:16:00;;;;;;;2.53;1.42;;;;;;;17.70;nan;98146.03;7394827;19;20011;-81
2023/09/18 05:18:26;;;;;;;6.10;0.88;;;;;;;18.21;nan;98137.25;7393185;19;20593;-81
2023/09/18 05:20:53;;;;;;;5.32;1.23;;;;;;;17.18;nan;98133.47;7392653;19;20037;-81
2023/09/18 05:23:19;;;;;;;1.63;0.80;;;;;;;19.26;nan;98122.53;7390228;19;20508;-81
2023/09/18 05:25:45;;;;;;;1.95;1.23;;;;;;;20.55;nan;98119.13;7391978;19;20018;-82
2023/09/18 05:28:12;;;;;;;3.65;0.85;;;;;;;17.89;nan;98130.22;7394628;19;20029;-81
2023/09/18 05:30:40;;;;;;;5.93;0.95;;;;;;;17.61;nan;98127.66;7390349;19;20038;-82
2023/09/18 05:33:08;;;;;;;0.73;0.45;;;;;;;20.72;nan;98121.13;7395124;19;20449;-81
2023/09/18 05:35:39;;;;;;;0.47;0.35;;;;;;;20.33;nan;98120.16;7392079;19;20014;-81
2023/09/18 05:38:05;;;;;;;3.63;0.90;;;;;;;19.61;nan;98115.66;7388677;19;20030;-80
2023/09/18 05:40:31;;;;;;;1.50;0.93;;;;;;;19.98;nan;98118.66;7394317;19;20026;-80
2023/09/18 05:42:58;;;;;;;2.40;1.52;;;;;;;19.41;nan;98124.50;7388720;19;20488;-80
2023/09/18 05:45:26;;;;;;;2.45;1.02;;;;;;;19.74;nan;98122.31;7390169;19;20476;-80
2023/09/18 05:47:53;;;;;;;3.08;1.15;;;;;;;20.84;nan;98117.16;7388558;19;20014;-80
2023/09/18 05:50:19;;;;;;;3.58;0.75;;;;;;;19.07;nan;98127.97;7390482;19;20361;-80
2023/09/18 05:52:48;;;;;;;2.63;0.98;;;;;;;18.98;nan;98117.28;7393373;19;20015;-80
2023/09/18 05:55:15;;;;;;;0.77;0.63;;;;;;;19.04;nan;98126.28;7391341;19;20017;-81
2023/09/18 05:57:41;;;;;;;3.13;0.85;;;;;;;18.98;nan;98122.19;7391324;19;20031;-80
2023/09/18 06:00:08;;;;;;;7.38;2.83;;;;;;;18.96;nan;98122.00;7393684;19;20461;-80
2023/09/18 06:02:40;;;;;;;8.77;1.17;;;;;;;19.94;nan;98118.34;7391271;19;20393;-80
2023/09/18 06:05:07;;;;;;;2.28;1.30;;;;;;;22.52;nan;98117.19;7392158;19;20003;-80
2023/09/18 06:07:33;;;;;;;1.80;1.40;;;;;;;18.49;nan;98128.53;7389866;19;20025;-81
2023/09/18 06:09:59;;;;;;;7.05;1.33;;;;;;;17.91;nan;98124.75;7392155;19;20030;-80
2023/09/18 06:12:25;;;;;;;3.25;0.90;;;;;;;16.12;nan;98133.22;7393658;19;20015;-80
2023/09/18 06:14:52;;;;;;;4.05;1.55;;;;;;;17.10;nan;98127.09;7392656;19;20033;-80
2023/09/18 06:17:18;;;;;;;0.75;0.68;;;;;;;19.84;nan;98126.72;7393160;19;20010;-80
2023/09/18 06:19:45;;;;;;;2.88;1.33;;;;;;;16.25;nan;98116.22;7395187;19;20018;-81
2023/09/18 06:22:12;;;;;;;0.70;0.70;;;;;;;18.00;nan;98114.97;7388421;19;20483;-81
2023/09/18 06:24:38;;;;;;;2.40;0.40;;;;;;;20.32;nan;98107.34;7388297;19;20035;-80
2023/09/18 06:27:05;;;;;;;3.35;0.85;;;;;;;17.45;nan;98114.91;7392885;19;20018;-80
2023/09/18 06:29:34;;;;;;;2.20;1.10;;;;;;;20.19;nan;98116.13;7393034;19;20733;-80
2023/09/18 06:32:01;;;;;;;0.88;0.88;;;;;;;21.09;nan;98097.94;7394924;19;20428;-80
2023/09/18 06:34:30;;;;;;;1.98;0.65;;;;;;;21.43;nan;98114.00;7388957;19;20029;-80
2023/09/18 06:36:56;;;;;;;2.50;0.95;;;;;;;20.83;nan;98097.97;7387374;19;20022;-80
2023/09/18 06:39:23;;;;;;;0.20;0.20;;;;;;;18.82;nan;98099.72;7390688;19;20041;-80
2023/09/18 06:41:50;;;;;;;3.35;0.55;;;;;;;19.38;nan;98103.09;7389031;19;20026;-80
2023/09/18 06:44:18;;;;;;;1.40;0.30;;;;;;;16.13;nan;98115.06;7388434;19;20021;-80
2023/09/18 06:46:44;;;;;;;5.43;1.13;;;;;;;16.61;nan;98110.56;7388504;19;20015;-80
2023/09/18 06:49:11;;;;;;;2.53;1.20;;;;;;;16.56;nan;98106.63;7391624;19;20025;-81
2023/09/18 06:51:37;;;;;;;3.05;0.98;;;;;;;17.97;nan;98104.84;7392467;19;20499;-80
2023/09/18 06:54:03;;;;;;;0.85;0.30;;;;;;;18.67;nan;98099.81;7391470;19;20031;-80
2023/09/18 06:56:29;;;;;;;8.23;0.43;;;;;;;18.64;nan;98103.06;7390773;19;20030;-80
2023/09/18 06:58:55;;;;;;;1.30;0.63;;;;;;;17.73;nan;98106.25;7388310;19;20029;-80
2023/09/18 07:01:24;;;;;;;1.35;0.30;;;;;;;15.98;nan;98114.25;7388838;19;20037;-80
2023/09/18 07:03:50;;;;;;;0.10;0.10;;;;;;;14.22;nan;98118.19;7387200;19;20010;-81
2023/09/18 07:06:18;;;;;;;1.17;0.57;;;;;;;14.70;nan;98123.22;7387094;19;20042;-80
2023/09/18 07:08:44;;;;;;;6.95;1.27;;;;;;;14.24;nan;98112.78;7392279;19;20015;-80
2023/09/18 07:11:11;;;;;;;1.45;0.88;;;;;;;14.45;nan;98116.41;7394829;19;20006;-81
2023/09/18 07:13:38;;;;;;;0.30;0.25;;;;;;;14.85;nan;98120.56;7397832;19;20027;-81
2023/09/18 07:16:06;;;;;;;0.55;0.13;;;;;;;14.92;nan;98108.66;7396290;19;20043;-80
2023/09/18 07:18:32;;;;;;;4.47;0.60;;;;;;;14.31;nan;98107.28;7394749;19;20014;-80
2023/09/18 07:20:59;;;;;;;0.40;0.20;;;;;;;14.13;nan;98107.44;7393794;19;20556;-80
2023/09/18 07:23:25;;;;;;;1.58;0.88;;;;;;;14.20;nan;98095.56;7395327;19;20022;-80
2023/09/18 07:25:51;;;;;;;1.27;0.82;;;;;;;14.68;nan;98095.00;7397028;19;20018;-80
2023/09/18 07:28:19;;;;;;;2.88;0.30;;;;;;;14.25;nan;98086.31;7392677;19;20015;-80
2023/09/18 07:30:45;;;;;;;0.55;0.45;;;;;;;14.13;nan;98091.41;7395379;19;20090;-80
2023/09/18 07:33:15;;;;;;;0.65;0.38;;;;;;;14.60;nan;98087.78;7398062;19;20015;-80
2023/09/18 07:35:41;;;;;;;1.63;0.73;;;;;;;14.52;nan;98086.97;7393691;19;20109;-80
2023/09/18 07:38:08;;;;;;;0.10;0.10;;;;;;;14.41;nan;98088.75;7395791;19;20018;-80
2023/09/18 07:40:34;;;;;;;0.68;0.60;;;;;;;14.45;nan;98094.00;7394734;19;20018;-80
2023/09/18 07:43:00;;;;;;;0.20;0.20;;;;;;;15.07;nan;98091.22;7395180;19;20034;-80
2023/09/18 07:45:26;;;;;;;4.28;0.85;;;;;;;14.35;nan;98090.16;7398932;19;20025;-80
2023/09/18 07:47:52;;;;;;;0.63;0.50;;;;;;;14.49;nan;98082.47;7395430;19;20126;-80
2023/09/18 07:50:18;;;;;;;0.20;0.13;;;;;;;14.40;nan;98092.09;7398262;19;20046;-80
2023/09/18 07:52:44;;;;;;;0.63;0.43;;;;;;;14.23;nan;98091.66;7399628;19;20010;-81
2023/09/18 07:55:11;;;;;;;0.63;0.50;;;;;;;14.36;nan;98091.66;7397167;19;20015;-81
2023/09/18 07:57:38;;;;;;;0.57;0.50;;;;;;;14.51;nan;98091.81;7397966;19;20385;-80
2023/09/18 08:00:07;;;;;;;1.17;0.20;;;;;;;14.87;nan;98092.72;7394868;19;20029;-81
2023/09/18 08:02:39;;;;;;;0.95;0.55;;;;;;;15.37;nan;98090.69;7395726;19;20025;-80
2023/09/18 08:05:05;;;;;;;1.08;0.20;;;;;;;15.18;nan;98091.66;7395725;19;20025;-81
2023/09/18 08:07:31;;;;;;;2.70;0.30;;;;;;;15.58;nan;98088.59;7395732;19;20011;-81
2023/09/18 08:09:57;;;;;;;2.08;0.20;;;;;;;14.86;nan;98094.03;7396015;19;20344;-81
2023/09/18 08:14:24;;;;;;;0.52;0.32;;;;;;;25.12;100.00;98069.25;7422402;19;20367;-82
2023/09/18 08:16:59;;;;;;;0.30;0.20;;;;;;;17.14;100.00;98063.53;7426304;19;20059;-82
2023/09/18 08:19:26;;;;;;;0.22;0.22;;;;;;;37.10;67.43;98041.97;7428378;19;20085;-82
2023/09/18 08:21:59;;;;;;;0.82;0.57;;;;;;;40.22;51.65;98028.84;7427143;19;20022;-82
2023/09/18 08:24:26;;;;;;;0.45;0.25;;;;;;;41.21;46.41;98027.22;7427198;19;20022;-84
2023/09/18 08:26:52;;;;;;;0.32;0.32;;;;;;;41.80;43.75;98015.97;7427175;19;20025;-82
2023/09/18 08:29:18;;;;;;;0.20;0.20;;;;;;;42.15;41.36;98019.38;7428955;19;20035;-83
2023/09/18 08:31:44;;;;;;;0.47;0.30;;;;;;;42.51;40.04;98010.31;7424716;19;20010;-83
2023/09/18 08:34:10;;;;;;;0.40;0.10;;;;;;;42.83;38.97;98006.31;7422646;19;20698;-80
2023/09/18 08:36:36;;;;;;;0.73;0.10;;;;;;;42.92;37.49;98008.44;7422983;19;20018;-82
2023/09/18 08:39:05;;;;;;;0.10;0.10;;;;;;;42.94;37.32;98007.66;7429747;19;20074;-82
2023/09/18 08:41:33;;;;;;;0.90;0.38;;;;;;;43.06;36.78;98006.81;7426761;19;20023;-83
2023/09/18 08:44:03;;;;;;;0.00;0.00;;;;;;;43.87;35.32;98006.44;7426388;19;20018;-82
2023/09/18 08:46:30;;;;;;;0.80;0.80;;;;;;;44.00;35.07;98005.50;7425844;19;20096;-82
2023/09/18 08:49:01;;;;;;;1.23;0.40;;;;;;;43.84;34.46;98011.63;7424839;19;20017;-82
2023/09/18 08:51:28;;;;;;;0.10;0.10;;;;;;;44.21;34.02;98003.69;7430713;19;20101;-83
2023/09/18 08:53:56;;;;;;;0.68;0.40;;;;;;;44.64;33.72;98000.03;7423469;19;20113;-83
2023/09/18 08:56:23;;;;;;;1.23;0.43;;;;;;;45.77;32.51;97993.25;7427472;19;20014;-82
2023/09/18 08:58:50;;;;;;;0.10;0.10;;;;;;;46.09;31.40;97996.94;7425751;19;20018;-82
2023/09/18 09:01:16;;;;;;;0.10;0.00;;;;;;;46.43;31.22;97987.25;7423770;19;20090;-83
2023/09/18 09:03:45;;;;;;;0.43;0.43;;;;;;;46.83;30.95;97983.19;7428867;19;20025;-83
2023/09/18 09:06:12;;;;;;;0.10;0.10;;;;;;;46.90;30.30;97972.69;7424106;19;20011;-84
2023/09/18 09:08:38;;;;;;;0.00;0.00;;;;;;;47.06;29.97;97966.34;7423980;19;20025;-84
2023/09/18 09:11:05;;;;;;;0.20;0.10;;;;;;;47.38;29.56;97970.56;7425639;19;20097;-82
2023/09/18 09:13:31;;;;;;;1.67;0.47;;;;;;;47.77;29.16;97978.94;7421463;19;20024;-82
2023/09/18 09:15:59;;;;;;;1.13;0.40;;;;;;;48.01;28.67;97966.34;7425359;19;20023;-84
2023/09/18 09:18:27;;;;;;;1.00;0.32;;;;;;;48.18;28.50;97967.25;7425647;19;20010;-83
2023/09/18 09:20:59;;;;;;;0.43;0.13;;;;;;;48.11;27.97;97966.03;7426161;19;20046;-82
2023/09/18 09:23:26;;;;;;;0.20;0.20;;;;;;;47.80;27.37;97956.72;7424349;19;20018;-86
2023/09/18 09:25:53;;;;;;;0.52;0.20;;;;;;;47.58;27.38;97960.38;7393851;19;20013;-81
2023/09/18 09:28:30;;;;;;;1.40;0.10;;;;;;;47.73;27.29;97962.06;7393746;19;20015;-81
2023/09/18 09:31:02;;;;;;;0.75;0.28;;;;;;;47.62;26.79;97966.13;7395589;19;20046;-82
2023/09/18 09:33:29;;;;;;;1.10;0.20;;;;;;;39.34;32.32;97977.66;7392659;19;20038;-80
2023/09/18 09:35:57;;;;;;;0.10;0.10;;;;;;;32.09;47.00;97971.16;7393468;19;20021;-79
2023/09/18 09:38:33;;;;;;;0.52;0.35;;;;;;;40.48;37.53;97965.34;7395486;19;20338;-80
2023/09/18 09:41:06;;;;;;;2.05;0.50;;;;;;;32.66;47.31;97973.66;7394389;19;20026;-82
2023/09/18 09:43:33;;;;;;;3.55;0.45;;;;;;;35.96;42.79;97972.06;7396904;19;20086;-83
2023/09/18 09:46:01;;;;;;;0.10;0.10;;;;;;;39.82;40.14;97971.94;7394062;19;20346;-82
2023/09/18 09:48:31;;;;;;;1.35;0.20;;;;;;;43.47;33.46;97966.72;7395866;19;20477;-82
2023/09/18 09:51:01;;;;;;;2.72;0.20;;;;;;;36.93;38.56;97982.22;7394018;19;20019;-82
2023/09/18 09:53:48;;;;;;;0.52;0.45;;;;;;;42.82;33.59;97970.41;7392004;19;20019;-82
2023/09/18 09:56:14;;;;;;;0.35;0.35;;;;;;;41.24;34.94;97969.53;7395865;19;20018;-82
2023/09/18 09:58:44;;;;;;;0.65;0.15;;;;;;;43.72;31.48;97973.69;7394570;19;20014;-83
2023/09/18 10:01:17;;;;;;;5.03;0.40;;;;;;;44.21;30.79;97974.34;7395110;19;20015;-84
2023/09/18 10:03:45;;;;;;;0.10;0.10;;;;;;;43.51;30.71;97973.22;7394605;19;20306;-85
2023/09/18 10:06:13;;;;;;;0.10;0.10;;;;;;;32.38;46.44;97987.19;7395467;19;20018;-84
2023/09/18 10:08:40;;;;;;;0.10;0.10;;;;;;;29.32;64.57;98007.22;7395538;19;20481;-85
2023/09/18 10:11:10;;;;;;;0.25;0.25;;;;;;;30.67;58.96;97995.56;7395133;19;20018;-85
2023/09/18 10:13:51;;;;;;;0.10;0.10;;;;;;;37.51;48.92;97988.00;7393462;19;20582;-85
2023/09/18 10:16:19;;;;;;;;;;;;;;;42.38;35.90;97979.69;7394629;19;20052;-86
2023/09/18 10:19:03;;;;;;;0.35;0.20;;;;;;;40.43;35.76;97986.53;7392489;19;20483;-85
2023/09/18 10:21:41;;;;;;;0.28;0.13;;;;;;;35.46;45.32;97989.25;7390645;19;20018;-86
2023/09/18 10:24:18;;;;;;;0.82;0.30;;;;;;;42.48;34.41;97988.38;7391425;19;20477;-85
2023/09/18 10:26:51;;;;;;;0.47;0.35;;;;;;;22.43;100.00;98023.59;7396327;19;20015;-85
2023/09/18 10:29:19;;;;;;;0.40;0.30;;;;;;;18.93;100.00;98030.81;7393940;19;20394;-85
2023/09/18 10:31:47;;;;;;;0.68;0.30;;;;;;;17.66;100.00;98022.53;7391607;19;20015;-85
2023/09/18 10:34:15;;;;;;;0.38;0.22;;;;;;;17.37;100.00;98026.91;7389604;19;20038;-85
2023/09/18 10:36:44;;;;;;;0.25;0.15;;;;;;;16.94;100.00;98021.53;7388648;19;20033;-84
2023/09/18 10:39:12;;;;;;;0.00;0.00;;;;;;;16.73;100.00;98040.66;7392947;19;20377;-86
2023/09/18 10:41:41;;;;;;;0.85;0.10;;;;;;;16.53;100.00;98043.09;7397874;19;20022;-85
2023/09/18 10:44:07;;;;;;;0.20;0.10;;;;;;;16.47;100.00;98053.72;7396129;19;20011;-85
2023/09/18 10:46:34;;;;;;;0.30;0.15;;;;;;;16.47;100.00;98055.78;7393440;19;20018;-85
2023/09/18 10:49:01;;;;;;;0.45;0.35;;;;;;;16.30;100.00;98078.78;7394608;19;20010;-88
2023/09/18 10:51:28;;;;;;;0.13;0.13;;;;;;;15.92;100.00;98083.50;7393965;19;20441;-88
2023/09/18 10:53:56;;;;;;;1.95;0.10;;;;;;;16.00;100.00;98067.47;7390687;19;20018;-88
2023/09/18 10:56:24;;;;;;;1.20;0.15;;;;;;;15.93;100.00;98068.94;7394921;19;20028;-88
2023/09/18 10:58:58;;;;;;;1.95;0.10;;;;;;;15.62;100.00;98078.50;7394017;19;20017;-87
2023/09/18 11:01:27;;;;;;;0.10;0.10;;;;;;;14.82;100.00;98082.41;7394489;19;20074;-89
2023/09/18 11:03:59;;;;;;;0.10;0.10;;;;;;;14.50;100.00;98098.72;7394623;19;20018;-87
2023/09/18 11:06:26;;;;;;;0.20;0.20;;;;;;;14.58;100.00;98102.34;7392676;19;20360;-86
2023/09/18 11:09:04;;;;;;;0.93;0.52;;;;;;;14.46;100.00;98117.16;7392893;19;20006;-85
2023/09/18 11:11:32;;;;;;;1.23;0.20;;;;;;;13.82;100.00;98122.34;7392525;19;20018;-85
2023/09/18 11:13:59;;;;;;;0.20;0.20;;;;;;;13.62;100.00;98132.88;7391554;19;20013;-86
2023/09/18 11:16:25;;;;;;;0.13;0.13;;;;;;;13.61;100.00;98131.41;7391789;19;20366;-85
2023/09/18 11:18:53;;;;;;;0.10;0.10;;;;;;;13.72;100.00;98135.25;7390912;19;20022;-85
2023/09/18 11:21:31;;;;;;;1.20;0.35;;;;;;;14.03;100.00;98140.72;7390895;19;20015;-85
2023/09/18 11:24:05;;;;;;;0.32;0.10;;;;;;;14.66;100.00;98139.59;7391889;19;20035;-85
2023/09/18 11:26:34;;;;;;;0.10;0.10;;;;;;;13.56;100.00;98146.22;7394404;19;20019;-85
2023/09/18 11:29:05;;;;;;;0.20;0.20;;;;;;;13.34;100.00;98143.84;7390353;19;20030;-85
2023/09/18 11:31:50;;;;;;;0.10;0.10;;;;;;;13.67;100.00;98129.25;7390631;19;20022;-86
2023/09/18 11:34:22;;;;;;;0.90;0.40;;;;;;;13.46;100.00;98131.19;7391262;19;20342;-86
2023/09/18 11:36:49;;;;;;;0.10;0.10;;;;;;;13.54;100.00;98126.44;7392657;19;20018;-86
2023/09/18 11:39:44;;;;;;;0.45;0.45;;;;;;;14.70;100.00;98131.63;7391557;19;20026;-85
2023/09/18 11:42:12;;;;;;;0.93;0.28;;;;;;;14.37;100.00;98138.75;7391652;19;20042;-85
2023/09/18 11:44:41;;;;;;;0.10;0.10;;;;;;;14.67;100.00;98143.91;7393883;19;20481;-85
2023/09/18 11:47:13;;;;;;;0.20;0.20;;;;;;;13.76;100.00;98132.88;7394208;19;20014;-86
2023/09/18 11:49:46;;;;;;;0.30;0.13;;;;;;;13.88;100.00;98137.72;7389834;19;20014;-85